Aérodrome :







RETROUVEZ-NOUS SUR...

 
LOGIN :

S'inscrire | Disclaimer

   EN    FR    IT 

 









Légende :    VFR   VFR Marginal   IFR   IFR Intensif   IFR Très Intensif
Visi : 
Plafond : 
>= 8 km
>= 3000ft
5 à 8 km
1000 à 3000 ft
1500m à 5 km
500 à 1000 ft
800 à 1500m
200 à 500 ft
< 800m
< 200 ft
Symboles :   Orages  Brouillard  Fortes neiges  Fortes précipitations  Vent > 20 kt






- Altitude de l'aérodrome : 241 ft
- Code IATA : CEF


KCEF - Westover ARB/Metropolitan

DERNIER METAR :
  • 201556Z 35009KT 10SM FEW008 BKN010 BKN019 OVC070 04/02 A2991 RMK AO2A SLP136 T00400022

METARs EXPIRÉS :
  • 201531Z 35009KT 8SM FEW006 BKN008 BKN015 OVC070 04/02 A2991 RMK AO2A SLP136
  • 201456Z 35010KT 7SM BKN006 OVC070 04/03 A2991 RMK AO2A DZE08 SLP136 60000 T00370025
  • 201431Z 35007KT 4SM BR OVC005 04/03 A2990 RMK AO2A SLP133
  • 201408Z AUTO 35006KT 9SM OVC005 03/03 A2990 RMK AO2 DZE08 SLP133

TAF AMD TAF KCEF
Valide du 20 à 13h jusqu'au 21 à 17h UTC


201345Z 2013/2117 36006KT 3200 -DZ BR SCT005 BKN007 BKN013 620303 QNH2988INS
BECMG 2014/2015 35009KT 2400 -DZ BR BKN005 OVC010 660303 620602 QNH2990INS
TEMPO 2015/2017 4800 -DZ BR SCT005 OVC007
BECMG 2016/2017 34009KT 6000 -DZ BR BKN010 OVC025 660204 620602 QNH2990INS
TEMPO 2017/2019 4800 -DZ BR BKN007
BECMG 2020/2021 32009KT 9999 NSW BKN015 620208 QNH2993INS
BECMG 2022/2023 32009KT 9999 SCT025 SCT200 QNH2996INS
BECMG 2113/2114 32012KT 9999 FEW030 FEW200 QNH3006INS TX05/2020Z TNM02/2111Z



MET'MAP, la Météo Aéronautique d'un coup d'oeil ! - Copyright ORBIFLY Décembre 2007 - Disclaimer

ORBIFLY MET'MAP TEAM :

Programmation & Développement : Alexandra Zaïnal
Conception & Développement : Baudouin d'Aumeries
Co-Programmation & Développement : Marc-Olivier Méhu
Soutien technique & logistique : Manuel Goepfert

Contact : metmap@orbifly.com




SOURCES & CREDITS :

   NOAA